createdAt,value
2023-05-12T00:00:08.279Z,100288.53
2023-05-12T00:02:38.321Z,100290.34
2023-05-12T00:05:07.644Z,100284.03
2023-05-12T00:07:36.574Z,100285.03
2023-05-12T00:10:05.670Z,100285.34
2023-05-12T00:12:34.291Z,100284.19
2023-05-12T00:15:02.951Z,100285.31
2023-05-12T00:17:31.524Z,100281.53
2023-05-12T00:20:01.653Z,100276.81
2023-05-12T00:22:30.073Z,100281.97
2023-05-12T00:24:58.667Z,100274.66
2023-05-12T00:27:27.224Z,100277.97
2023-05-12T00:29:55.714Z,100280.47
2023-05-12T00:32:24.208Z,100286.44
2023-05-12T00:34:54.550Z,100282.25
2023-05-12T00:37:24.586Z,100286.44
2023-05-12T00:39:53.073Z,100288.41
2023-05-12T00:42:21.598Z,100289.22
2023-05-12T00:44:50.191Z,100285.22
2023-05-12T00:47:20.388Z,100291.88
2023-05-12T00:49:48.959Z,100288.84
2023-05-12T00:52:17.423Z,100297.00
2023-05-12T00:54:48.045Z,100291.50
2023-05-12T00:57:16.572Z,100295.66
2023-05-12T00:59:45.052Z,100298.06
2023-05-12T01:02:13.632Z,100300.72
2023-05-12T01:04:42.176Z,100299.06
2023-05-12T01:07:18.182Z,100302.34
2023-05-12T01:09:48.053Z,100304.47
2023-05-12T01:12:16.762Z,100289.03
2023-05-12T01:14:45.288Z,100304.97
2023-05-12T01:17:15.526Z,100300.66
2023-05-12T01:19:47.751Z,100304.25
2023-05-12T01:22:17.760Z,100302.59
2023-05-12T01:24:55.447Z,100303.25
2023-05-12T01:27:27.673Z,100301.56
2023-05-12T01:29:59.395Z,100301.06
2023-05-12T01:32:28.014Z,100300.88
2023-05-12T01:34:56.588Z,100300.78
2023-05-12T01:37:27.094Z,100303.06
2023-05-12T01:39:55.823Z,100299.41
2023-05-12T01:42:25.961Z,100302.44
2023-05-12T01:44:54.465Z,100306.84
2023-05-12T01:47:23.038Z,100310.78
2023-05-12T01:49:51.615Z,100313.25
2023-05-12T01:52:20.694Z,100307.78
2023-05-12T01:54:49.304Z,100302.63
2023-05-12T01:57:17.794Z,100312.94
2023-05-12T01:59:47.691Z,100306.84
2023-05-12T02:02:16.367Z,100307.00
2023-05-12T02:04:44.991Z,100314.00
2023-05-12T02:07:13.430Z,100322.78
2023-05-12T02:09:42.039Z,100316.66
2023-05-12T02:12:11.118Z,100317.09
2023-05-12T02:14:39.708Z,100314.31
2023-05-12T02:17:09.829Z,100324.59
2023-05-12T02:19:38.338Z,100314.00
2023-05-12T02:22:06.960Z,100309.81
2023-05-12T02:24:35.532Z,100317.78
2023-05-12T02:27:04.012Z,100321.28
2023-05-12T02:29:32.605Z,100314.59
2023-05-12T02:32:05.987Z,100321.03
2023-05-12T02:34:43.042Z,100318.56
2023-05-12T02:37:11.803Z,100325.00
2023-05-12T02:39:40.450Z,100319.19
2023-05-12T02:42:09.464Z,100326.47
2023-05-12T02:44:37.983Z,100330.09
2023-05-12T02:47:07.103Z,100320.59
2023-05-12T02:49:37.595Z,100328.75
2023-05-12T02:52:07.028Z,100329.03
2023-05-12T02:54:35.596Z,100331.69
2023-05-12T02:57:07.074Z,100309.00
2023-05-12T02:59:36.507Z,100330.47
2023-05-12T03:02:05.829Z,100324.94
2023-05-12T03:04:34.550Z,100333.06
2023-05-12T03:07:04.786Z,100333.34
2023-05-12T03:09:33.501Z,100332.00
2023-05-12T03:12:02.168Z,100337.59
2023-05-12T03:14:30.749Z,100331.75
2023-05-12T03:16:59.425Z,100333.59
2023-05-12T03:19:28.120Z,100328.59
2023-05-12T03:21:56.975Z,100342.81
2023-05-12T03:24:26.963Z,100324.03
2023-05-12T03:26:55.464Z,100331.97
2023-05-12T03:29:24.850Z,100339.41
2023-05-12T03:31:53.446Z,100336.91
2023-05-12T03:34:22.113Z,100348.47
2023-05-12T03:36:50.800Z,100342.50
2023-05-12T03:39:19.411Z,100343.91
2023-05-12T03:41:49.528Z,100341.41
2023-05-12T03:44:19.041Z,100348.38
2023-05-12T03:46:47.882Z,100348.38
2023-05-12T03:49:16.713Z,100352.28
2023-05-12T03:51:45.311Z,100361.22
2023-05-12T03:54:14.018Z,100359.28
2023-05-12T03:56:42.593Z,100360.25
2023-05-12T03:59:13.138Z,100360.41
2023-05-12T04:01:41.976Z,100362.91
2023-05-12T04:04:10.992Z,100349.66
2023-05-12T04:06:39.721Z,100354.94
2023-05-12T04:09:08.300Z,100369.06
2023-05-12T04:11:37.317Z,100358.44
2023-05-12T04:14:06.299Z,100371.53
2023-05-12T04:16:37.073Z,100369.56
2023-05-12T04:19:05.835Z,100367.91
2023-05-12T04:21:34.521Z,100379.88
2023-05-12T04:24:03.096Z,100363.00
2023-05-12T04:26:31.580Z,100380.31
2023-05-12T04:29:00.189Z,100381.84
2023-05-12T04:31:28.932Z,100388.94
2023-05-12T04:33:58.893Z,100387.13
2023-05-12T04:36:28.714Z,100383.63
2023-05-12T04:38:57.512Z,100388.94
2023-05-12T04:41:26.401Z,100385.16
2023-05-12T04:46:26.574Z,100389.50
2023-05-12T04:48:55.369Z,100381.06
2023-05-12T04:51:25.540Z,100376.75
2023-05-12T04:53:54.056Z,100381.63
2023-05-12T04:56:23.259Z,100388.44
2023-05-12T04:58:52.023Z,100394.28
2023-05-12T05:01:20.577Z,100394.81
2023-05-12T05:03:49.893Z,100385.56
2023-05-12T05:06:19.166Z,100382.59
2023-05-12T05:08:49.067Z,100390.00
2023-05-12T05:11:17.558Z,100391.66
2023-05-12T05:13:46.047Z,100382.72
2023-05-12T05:16:14.942Z,100390.38
2023-05-12T05:18:46.916Z,100395.22
2023-05-12T05:21:15.731Z,100397.94
2023-05-12T05:23:44.301Z,100394.84
2023-05-12T05:26:19.706Z,100400.53
2023-05-12T05:28:48.180Z,100391.78
2023-05-12T05:31:17.983Z,100397.31
2023-05-12T05:33:46.485Z,100397.41
2023-05-12T05:36:15.188Z,100397.44
2023-05-12T05:38:43.909Z,100399.50
2023-05-12T05:41:12.410Z,100394.91
2023-05-12T05:43:42.316Z,100394.50
2023-05-12T05:46:11.063Z,100406.19
2023-05-12T05:48:39.554Z,100398.78
2023-05-12T05:51:07.993Z,100401.03
2023-05-12T05:53:36.660Z,100392.91
2023-05-12T05:56:05.674Z,100412.25
2023-05-12T05:58:34.315Z,100393.66
2023-05-12T06:01:05.903Z,100411.47
2023-05-12T06:03:35.640Z,100401.69
2023-05-12T06:06:05.404Z,100397.34
2023-05-12T06:08:34.099Z,100409.38
2023-05-12T06:11:02.506Z,100406.09
2023-05-12T06:13:31.060Z,100414.28
2023-05-12T06:15:59.507Z,100403.84
2023-05-12T06:18:29.656Z,100401.00
2023-05-12T06:20:58.397Z,100414.16
2023-05-12T06:23:27.088Z,100410.84
2023-05-12T06:25:55.588Z,100406.34
2023-05-12T06:28:24.045Z,100412.91
2023-05-12T06:30:52.864Z,100414.06
2023-05-12T06:33:21.732Z,100416.25
2023-05-12T06:35:51.962Z,100407.59
2023-05-12T06:38:23.056Z,100415.75
2023-05-12T06:40:54.303Z,100410.75
2023-05-12T06:43:23.665Z,100415.91
2023-05-12T06:45:52.165Z,100418.22
2023-05-12T06:48:20.974Z,100407.06
2023-05-12T06:50:52.290Z,100409.84
2023-05-12T06:53:21.793Z,100409.84
2023-05-12T06:55:51.438Z,100424.31
2023-05-12T06:58:22.198Z,100430.81
2023-05-12T07:00:50.971Z,100417.06
2023-05-12T07:03:19.466Z,100413.41
2023-05-12T07:05:47.974Z,100403.59
2023-05-12T07:08:17.955Z,100406.06
2023-05-12T07:10:46.597Z,100401.31
2023-05-12T07:13:15.118Z,100408.25
2023-05-12T07:15:43.631Z,100410.72
2023-05-12T07:18:12.526Z,100408.34
2023-05-12T07:20:41.156Z,100408.00
2023-05-12T07:23:10.348Z,100409.44
2023-05-12T07:25:40.988Z,100401.22
2023-05-12T07:28:09.608Z,100409.53
2023-05-12T07:30:38.896Z,100406.13
2023-05-12T07:33:08.837Z,100407.72
2023-05-12T07:35:37.253Z,100407.09
2023-05-12T07:38:05.708Z,100404.81
2023-05-12T07:40:34.234Z,100400.47
2023-05-12T07:43:04.324Z,100402.38
2023-05-12T07:45:32.784Z,100409.88
2023-05-12T07:48:01.321Z,100412.56
2023-05-12T07:50:29.877Z,100409.63
2023-05-12T07:52:58.391Z,100412.66
2023-05-12T07:55:27.066Z,100403.09
2023-05-12T07:57:55.565Z,100405.78
2023-05-12T08:00:25.596Z,100409.53
2023-05-12T08:02:54.329Z,100398.44
2023-05-12T08:05:23.100Z,100407.41
2023-05-12T08:07:52.099Z,100409.69
2023-05-12T08:10:20.931Z,100412.94
2023-05-12T08:12:49.467Z,100403.03
2023-05-12T08:15:18.099Z,100407.91
2023-05-12T08:17:48.549Z,100403.81
2023-05-12T08:20:17.374Z,100399.94
2023-05-12T08:22:48.083Z,100407.75
2023-05-12T08:25:16.447Z,100400.03
2023-05-12T08:27:45.848Z,100405.06
2023-05-12T08:30:15.278Z,100404.91
2023-05-12T08:32:43.827Z,100406.06
2023-05-12T08:35:13.999Z,100409.56
2023-05-12T08:37:45.642Z,100406.75
2023-05-12T08:40:25.262Z,100400.34
2023-05-12T08:43:04.292Z,100412.84
2023-05-12T08:45:34.303Z,100411.66
2023-05-12T08:48:04.472Z,100407.09
2023-05-12T08:50:37.442Z,100398.44
2023-05-12T08:53:06.820Z,100412.16
2023-05-12T08:55:36.737Z,100397.94
2023-05-12T08:58:05.432Z,100406.44
2023-05-12T09:00:36.522Z,100407.03
2023-05-12T09:03:07.704Z,100400.03
2023-05-12T09:05:39.736Z,100408.09
2023-05-12T09:08:11.155Z,100391.16
2023-05-12T09:10:44.082Z,100396.94
2023-05-12T09:13:17.749Z,100408.13
2023-05-12T09:15:49.505Z,100393.84
2023-05-12T09:18:18.004Z,100392.00
2023-05-12T09:20:47.861Z,100398.56
2023-05-12T09:23:18.893Z,100401.44
2023-05-12T09:25:48.471Z,100391.88
2023-05-12T09:28:17.779Z,100395.97
2023-05-12T09:30:47.039Z,100396.56
2023-05-12T09:33:17.003Z,100392.94
2023-05-12T09:35:47.978Z,100391.91
2023-05-12T09:38:16.597Z,100389.63
2023-05-12T09:40:46.033Z,100398.28
2023-05-12T09:43:22.232Z,100396.56
2023-05-12T09:45:52.872Z,100392.03
2023-05-12T09:48:24.424Z,100391.19
2023-05-12T09:50:55.343Z,100388.47
2023-05-12T09:53:24.222Z,100381.44
2023-05-12T09:55:53.204Z,100381.38
2023-05-12T09:58:23.785Z,100375.34
2023-05-12T10:03:29.570Z,100377.38
2023-05-12T10:06:02.212Z,100374.06
2023-05-12T10:08:35.618Z,100377.19
2023-05-12T10:11:06.292Z,100366.25
2023-05-12T10:13:35.442Z,100371.97
2023-05-12T10:16:04.654Z,100373.06
2023-05-12T10:18:34.890Z,100372.75
2023-05-12T10:21:05.005Z,100380.19
2023-05-12T10:23:37.697Z,100376.31
2023-05-12T10:26:08.117Z,100375.38
2023-05-12T10:28:36.519Z,100373.09
2023-05-12T10:31:07.223Z,100366.66
2023-05-12T10:33:36.163Z,100363.13
2023-05-12T10:36:09.566Z,100362.72
2023-05-12T10:38:39.785Z,100370.81
2023-05-12T10:41:13.203Z,100376.78
2023-05-12T10:43:47.081Z,100366.13
2023-05-12T10:46:23.149Z,100356.38
2023-05-12T10:48:57.697Z,100362.44
2023-05-12T10:51:30.140Z,100365.56
2023-05-12T10:54:10.282Z,100359.44
2023-05-12T10:56:45.814Z,100357.69
2023-05-12T10:59:19.555Z,100359.94
2023-05-12T11:02:05.387Z,100365.78
2023-05-12T11:04:41.541Z,100359.38
2023-05-12T11:07:14.279Z,100350.69
2023-05-12T11:09:56.855Z,100353.78
2023-05-12T11:12:28.185Z,100354.13
2023-05-12T11:14:57.137Z,100351.22
2023-05-12T11:17:25.757Z,100347.13
2023-05-12T11:19:56.374Z,100348.31
2023-05-12T11:22:32.402Z,100351.00
2023-05-12T11:25:11.755Z,100349.44
2023-05-12T11:27:45.697Z,100348.88
2023-05-12T11:30:17.843Z,100356.34
2023-05-12T11:32:49.219Z,100359.53
2023-05-12T11:35:20.020Z,100372.41
2023-05-12T11:37:50.639Z,100366.78
2023-05-12T11:40:21.178Z,100371.06
2023-05-12T11:42:53.204Z,100369.28
2023-05-12T11:45:27.154Z,100363.34
2023-05-12T11:48:06.524Z,100364.59
2023-05-12T11:50:35.129Z,100367.06
2023-05-12T11:53:04.973Z,100364.47
2023-05-12T11:55:34.377Z,100366.72
2023-05-12T11:58:05.787Z,100375.16
2023-05-12T12:00:35.786Z,100376.25
2023-05-12T12:03:22.473Z,100375.91
2023-05-12T12:06:00.324Z,100367.72
2023-05-12T12:08:30.424Z,100364.84
2023-05-12T12:11:01.368Z,100370.31
2023-05-12T12:13:31.507Z,100370.84
2023-05-12T12:16:00.120Z,100369.19
2023-05-12T12:18:28.653Z,100372.94
2023-05-12T12:20:57.159Z,100369.50
2023-05-12T12:23:25.679Z,100361.03
2023-05-12T12:25:55.713Z,100367.25
2023-05-12T12:28:24.266Z,100373.38
2023-05-12T12:30:53.110Z,100374.84
2023-05-12T12:33:21.774Z,100369.56
2023-05-12T12:35:50.437Z,100374.94
2023-05-12T12:38:20.060Z,100366.56
2023-05-12T12:40:48.848Z,100364.09
2023-05-12T12:43:22.151Z,100364.88
2023-05-12T12:45:51.420Z,100362.94
2023-05-12T12:48:20.235Z,100367.19
2023-05-12T12:50:48.737Z,100363.50
2023-05-12T12:53:19.884Z,100358.66
2023-05-12T12:55:48.595Z,100368.66
2023-05-12T12:58:21.489Z,100357.59
2023-05-12T13:00:50.670Z,100371.09
2023-05-12T13:03:20.477Z,100356.13
2023-05-12T13:05:49.622Z,100364.72
2023-05-12T13:08:18.481Z,100362.50
2023-05-12T13:10:47.269Z,100362.28
2023-05-12T13:13:21.178Z,100358.38
2023-05-12T13:15:51.821Z,100351.75
2023-05-12T13:18:20.891Z,100356.78
2023-05-12T13:20:49.680Z,100354.50
2023-05-12T13:23:18.610Z,100345.03
2023-05-12T13:25:49.771Z,100350.78
2023-05-12T13:28:24.269Z,100345.56
2023-05-12T13:30:54.114Z,100348.03
2023-05-12T13:33:23.726Z,100355.19
2023-05-12T13:35:52.723Z,100358.38
2023-05-12T13:38:22.622Z,100347.03
2023-05-12T13:40:51.316Z,100347.47
2023-05-12T13:43:22.266Z,100357.22
2023-05-12T13:45:51.249Z,100353.91
2023-05-12T13:48:19.973Z,100356.25
2023-05-12T13:50:49.131Z,100351.94
2023-05-12T13:53:18.243Z,100353.13
2023-05-12T13:55:47.168Z,100350.59
2023-05-12T13:58:18.631Z,100361.47
2023-05-12T14:00:49.649Z,100356.31
2023-05-12T14:03:18.377Z,100356.06
2023-05-12T14:05:46.761Z,100356.31
2023-05-12T14:08:15.489Z,100346.31
2023-05-12T14:10:45.322Z,100349.88
2023-05-12T14:13:14.111Z,100355.09
2023-05-12T14:15:49.406Z,100350.97
2023-05-12T14:18:20.597Z,100359.00
2023-05-12T14:20:49.512Z,100357.78
2023-05-12T14:23:18.104Z,100356.38
2023-05-12T14:25:46.710Z,100361.97
2023-05-12T14:28:15.292Z,100361.53
2023-05-12T14:30:45.631Z,100364.47
2023-05-12T14:33:14.300Z,100356.13
2023-05-12T14:35:52.889Z,100364.91
2023-05-12T14:38:28.869Z,100357.59
2023-05-12T14:40:57.696Z,100364.09
2023-05-12T14:43:26.351Z,100351.22
2023-05-12T14:45:55.708Z,100362.81
2023-05-12T14:48:26.298Z,100358.47
2023-05-12T14:50:56.510Z,100359.94
2023-05-12T14:53:25.825Z,100358.66
2023-05-12T14:55:54.309Z,100356.13
2023-05-12T14:58:24.521Z,100357.41
2023-05-12T15:00:53.767Z,100356.38
2023-05-12T15:03:22.693Z,100364.47
2023-05-12T15:08:24.812Z,100349.56
2023-05-12T15:10:53.300Z,100368.22
2023-05-12T15:13:22.909Z,100349.16
2023-05-12T15:15:55.201Z,100366.75
2023-05-12T15:18:25.602Z,100368.41
2023-05-12T15:20:54.325Z,100369.88
2023-05-12T15:23:24.536Z,100359.72
2023-05-12T15:25:53.020Z,100365.53
2023-05-12T15:28:21.710Z,100368.22
2023-05-12T15:30:56.873Z,100356.59
2023-05-12T15:33:26.488Z,100361.38
2023-05-12T15:35:55.362Z,100362.81
2023-05-12T15:38:25.620Z,100361.59
2023-05-12T15:40:54.181Z,100357.44
2023-05-12T15:43:22.693Z,100361.97
2023-05-12T15:45:51.153Z,100367.16
2023-05-12T15:48:19.630Z,100355.34
2023-05-12T15:50:48.219Z,100369.00
2023-05-12T15:53:17.335Z,100344.69
2023-05-12T15:55:47.385Z,100355.78
2023-05-12T15:58:16.085Z,100362.59
2023-05-12T16:00:44.858Z,100353.03
2023-05-12T16:03:13.626Z,100357.03
2023-05-12T16:05:42.369Z,100362.13
2023-05-12T16:08:11.012Z,100353.63
2023-05-12T16:10:40.105Z,100358.41
2023-05-12T16:13:10.577Z,100361.50
2023-05-12T16:15:39.121Z,100361.97
2023-05-12T16:18:10.956Z,100362.03
2023-05-12T16:20:41.932Z,100368.47
2023-05-12T16:23:11.050Z,100358.72
2023-05-12T16:25:41.175Z,100366.19
2023-05-12T16:28:11.378Z,100356.22
2023-05-12T16:30:40.090Z,100363.31
2023-05-12T16:33:09.035Z,100367.44
2023-05-12T16:35:40.316Z,100373.25
2023-05-12T16:38:09.020Z,100370.28
2023-05-12T16:40:37.604Z,100378.56
2023-05-12T16:43:06.403Z,100367.38
2023-05-12T16:45:37.135Z,100366.16
2023-05-12T16:48:06.656Z,100373.59
2023-05-12T16:50:35.963Z,100374.41
2023-05-12T16:53:04.622Z,100378.97
2023-05-12T16:55:33.656Z,100377.38
2023-05-12T16:58:02.332Z,100372.44
2023-05-12T17:00:31.733Z,100386.56
2023-05-12T17:03:04.426Z,100373.69
2023-05-12T17:05:33.525Z,100389.88
2023-05-12T17:08:02.042Z,100384.91
2023-05-12T17:10:30.618Z,100389.44
2023-05-12T17:12:59.502Z,100400.25
2023-05-12T17:15:28.121Z,100390.53
2023-05-12T17:17:56.962Z,100398.00
2023-05-12T17:20:27.294Z,100393.22
2023-05-12T17:22:55.696Z,100393.66
2023-05-12T17:25:24.397Z,100398.59
2023-05-12T17:27:52.966Z,100407.53
2023-05-12T17:30:21.816Z,100397.78
2023-05-12T17:32:50.760Z,100409.16
2023-05-12T17:35:19.369Z,100411.03
2023-05-12T17:37:56.232Z,100412.25
2023-05-12T17:40:25.027Z,100416.22
2023-05-12T17:42:53.400Z,100424.88
2023-05-12T17:45:22.162Z,100424.91
2023-05-12T17:47:51.425Z,100419.72
2023-05-12T17:50:20.023Z,100426.53
2023-05-12T17:52:49.913Z,100427.78
2023-05-12T17:55:18.916Z,100433.56
2023-05-12T17:57:49.514Z,100428.38
2023-05-12T18:00:18.635Z,100441.59
2023-05-12T18:02:47.322Z,100438.06
2023-05-12T18:05:16.071Z,100445.31
2023-05-12T18:07:44.594Z,100446.97
2023-05-12T18:10:14.681Z,100454.38
2023-05-12T18:12:43.215Z,100454.75
2023-05-12T18:15:12.656Z,100456.53
2023-05-12T18:17:41.603Z,100452.19
2023-05-12T18:20:13.254Z,100460.25
2023-05-12T18:22:41.798Z,100459.81
2023-05-12T18:25:13.098Z,100463.28
2023-05-12T18:27:49.078Z,100457.22
2023-05-12T18:30:24.612Z,100474.63
2023-05-12T18:33:01.511Z,100473.97
2023-05-12T18:35:37.625Z,100459.94
2023-05-12T18:38:13.857Z,100478.09
2023-05-12T18:40:43.003Z,100485.25
2023-05-12T18:43:13.050Z,100482.56
2023-05-12T18:45:41.750Z,100481.06
2023-05-12T18:48:15.125Z,100494.22
2023-05-12T18:50:49.638Z,100498.47
2023-05-12T18:53:23.700Z,100494.09
2023-05-12T18:55:52.808Z,100493.22
2023-05-12T18:58:23.469Z,100494.50
2023-05-12T19:00:52.567Z,100501.50
2023-05-12T19:03:21.933Z,100502.63
2023-05-12T19:05:50.868Z,100502.63
2023-05-12T19:08:20.211Z,100512.19
2023-05-12T19:10:49.672Z,100515.97
2023-05-12T19:13:18.171Z,100522.94
2023-05-12T19:15:48.111Z,100521.28
2023-05-12T19:18:17.390Z,100521.19
2023-05-12T19:20:45.861Z,100522.41
2023-05-12T19:23:14.401Z,100524.44
2023-05-12T19:25:43.610Z,100530.72
2023-05-12T19:28:12.156Z,100519.28
2023-05-12T19:30:40.641Z,100530.25
2023-05-12T19:33:10.600Z,100540.41
2023-05-12T19:35:39.243Z,100543.81
2023-05-12T19:38:07.639Z,100534.13
2023-05-12T19:40:36.105Z,100538.28
2023-05-12T19:43:05.368Z,100535.81
2023-05-12T19:45:34.560Z,100550.19
2023-05-12T19:48:03.254Z,100543.72
2023-05-12T19:50:33.328Z,100550.91
2023-05-12T19:53:01.727Z,100540.41
2023-05-12T19:55:30.376Z,100545.09
2023-05-12T19:57:59.049Z,100547.66
2023-05-12T20:00:27.554Z,100550.22
2023-05-12T20:02:56.192Z,100549.81
2023-05-12T20:05:24.911Z,100534.53
2023-05-12T20:07:54.763Z,100553.44
2023-05-12T20:10:23.221Z,100554.28
2023-05-12T20:12:52.409Z,100554.69
2023-05-12T20:15:21.231Z,100562.38
2023-05-12T20:17:50.167Z,100562.81
2023-05-12T20:20:19.178Z,100561.44
2023-05-12T20:22:47.596Z,100558.25
2023-05-12T20:25:18.303Z,100566.28
2023-05-12T20:27:47.077Z,100554.44
2023-05-12T20:30:16.340Z,100564.56
2023-05-12T20:32:45.054Z,100557.81
2023-05-12T20:35:13.752Z,100558.47
2023-05-12T20:37:42.196Z,100562.44
2023-05-12T20:40:11.603Z,100565.31
2023-05-12T20:42:41.866Z,100567.63
2023-05-12T20:45:11.514Z,100562.66
2023-05-12T20:47:40.005Z,100559.50
2023-05-12T20:50:09.463Z,100567.53
2023-05-12T20:52:38.857Z,100572.88
2023-05-12T20:55:08.774Z,100573.09
2023-05-12T20:57:38.057Z,100570.47
2023-05-12T21:00:10.915Z,100579.50
2023-05-12T21:02:39.642Z,100576.16
2023-05-12T21:05:08.576Z,100572.06
2023-05-12T21:07:37.232Z,100581.75
2023-05-12T21:10:06.574Z,100570.91
2023-05-12T21:12:35.244Z,100572.25
2023-05-12T21:15:04.190Z,100586.78
2023-05-12T21:17:34.105Z,100586.63
2023-05-12T21:20:02.622Z,100583.16
2023-05-12T21:22:31.158Z,100583.38
2023-05-12T21:24:59.693Z,100583.97
2023-05-12T21:27:28.961Z,100577.28
2023-05-12T21:29:58.108Z,100575.50
2023-05-12T21:32:26.895Z,100579.00
2023-05-12T21:34:57.426Z,100566.50
2023-05-12T21:37:25.969Z,100584.84
2023-05-12T21:39:54.456Z,100584.16
2023-05-12T21:42:22.851Z,100586.31
2023-05-12T21:44:51.952Z,100584.66
2023-05-12T21:47:20.557Z,100584.00
2023-05-12T21:49:49.161Z,100591.84
2023-05-12T21:52:19.138Z,100592.00
2023-05-12T21:54:48.138Z,100589.00
2023-05-12T21:57:16.771Z,100583.69
2023-05-12T21:59:45.218Z,100588.88
2023-05-12T22:02:14.152Z,100591.69
2023-05-12T22:04:42.649Z,100588.22
2023-05-12T22:07:11.095Z,100589.50
2023-05-12T22:09:41.023Z,100583.16
2023-05-12T22:12:13.778Z,100589.50
2023-05-12T22:14:42.248Z,100591.34
2023-05-12T22:17:10.753Z,100584.81
2023-05-12T22:19:39.258Z,100589.50
2023-05-12T22:22:07.975Z,100584.16
2023-05-12T22:24:36.669Z,100580.50
2023-05-12T22:27:07.357Z,100579.16
2023-05-12T22:29:35.927Z,100585.16
2023-05-12T22:32:04.449Z,100582.81
2023-05-12T22:34:32.851Z,100583.16
2023-05-12T22:37:01.665Z,100579.81
2023-05-12T22:39:30.151Z,100578.50
2023-05-12T22:41:58.652Z,100576.16
2023-05-12T22:44:28.558Z,100570.16
2023-05-12T22:46:57.056Z,100583.66
2023-05-12T22:49:25.809Z,100578.81
2023-05-12T22:51:54.277Z,100581.47
2023-05-12T22:54:22.913Z,100579.47
2023-05-12T22:56:51.303Z,100578.66
2023-05-12T22:59:19.979Z,100590.81
2023-05-12T23:01:50.035Z,100573.47
2023-05-12T23:04:18.651Z,100572.00
2023-05-12T23:06:47.444Z,100580.31
2023-05-12T23:09:16.377Z,100574.47
2023-05-12T23:11:44.858Z,100574.13
2023-05-12T23:14:13.441Z,100575.97
2023-05-12T23:16:41.954Z,100573.78
2023-05-12T23:19:11.966Z,100568.44
2023-05-12T23:21:40.684Z,100562.09
2023-05-12T23:24:09.786Z,100569.38
2023-05-12T23:26:38.217Z,100583.03
2023-05-12T23:29:06.750Z,100581.00
2023-05-12T23:31:35.329Z,100575.00
2023-05-12T23:34:03.836Z,100581.81
2023-05-12T23:36:34.321Z,100582.25
2023-05-12T23:39:03.093Z,100579.56
2023-05-12T23:41:33.397Z,100582.06
2023-05-12T23:44:02.486Z,100582.56
2023-05-12T23:46:30.985Z,100574.56
2023-05-12T23:48:59.972Z,100568.56
2023-05-12T23:51:28.728Z,100576.03
2023-05-12T23:53:58.678Z,100572.53
2023-05-12T23:56:27.126Z,100569.19
2023-05-12T23:58:55.612Z,100573.50
